createdAt,value
2023-09-02T00:03:00.464Z,91
2023-09-02T00:13:00.644Z,91
2023-09-02T00:23:00.862Z,91
2023-09-02T00:33:01.071Z,91
2023-09-02T00:43:01.252Z,91
2023-09-02T00:53:01.434Z,91
2023-09-02T01:03:01.729Z,91
2023-09-02T01:13:01.828Z,91
2023-09-02T01:23:02.054Z,91
2023-09-02T01:33:02.236Z,91
2023-09-02T01:43:02.468Z,91
2023-09-02T01:53:02.617Z,91
2023-09-02T02:03:02.930Z,91
2023-09-02T02:13:03.029Z,91
2023-09-02T02:33:03.404Z,91
2023-09-02T02:43:03.593Z,91
2023-09-02T02:53:03.803Z,91
2023-09-02T03:03:04.019Z,91
2023-09-02T03:43:04.775Z,92
2023-09-02T04:33:05.850Z,92
2023-09-02T05:43:07.173Z,92
2023-09-02T06:03:07.649Z,92
2023-09-02T06:23:07.937Z,92
2023-09-02T06:43:08.290Z,91
2023-09-02T06:53:08.490Z,91
2023-09-02T07:03:08.728Z,92
2023-09-02T07:53:09.665Z,91
2023-09-02T08:03:09.932Z,91
2023-09-02T08:13:10.055Z,90
2023-09-02T08:23:10.247Z,90
2023-09-02T08:43:10.650Z,89
2023-09-02T08:53:10.846Z,88
2023-09-02T09:03:11.026Z,88
2023-09-02T09:13:11.658Z,87
2023-09-02T09:53:12.012Z,86
2023-09-02T10:53:14.993Z,82
2023-09-02T13:13:15.980Z,77
2023-09-02T13:53:16.948Z,77
2023-09-02T14:43:17.982Z,75
2023-09-02T14:53:18.099Z,74
2023-09-02T15:03:18.376Z,74
2023-09-02T15:13:18.436Z,74
2023-09-02T15:23:18.742Z,73
2023-09-02T15:33:18.963Z,72
2023-09-02T15:43:19.036Z,72
2023-09-02T15:53:19.181Z,72
2023-09-02T16:03:19.577Z,71
2023-09-02T16:23:19.763Z,72
2023-09-02T16:33:20.022Z,72
2023-09-02T16:43:20.287Z,71
2023-09-02T16:53:20.465Z,72
2023-09-02T17:03:20.646Z,72
2023-09-02T17:13:20.883Z,72
2023-09-02T17:23:20.969Z,72
2023-09-02T17:33:21.046Z,73
2023-09-02T17:43:21.199Z,74
2023-09-02T17:53:21.393Z,74
2023-09-02T18:03:21.603Z,75
2023-09-02T18:13:21.809Z,76
2023-09-02T18:23:21.995Z,77
2023-09-02T18:33:22.164Z,78
2023-09-02T18:43:22.364Z,78
2023-09-02T19:03:22.785Z,79
2023-09-02T19:13:22.957Z,79
2023-09-02T19:23:23.168Z,79
2023-09-02T19:33:23.373Z,80
2023-09-02T19:43:23.544Z,81
2023-09-02T19:53:23.736Z,81
2023-09-02T20:03:23.938Z,82
2023-09-02T20:13:24.121Z,83
2023-09-02T20:33:24.517Z,83
2023-09-02T20:43:24.697Z,84
2023-09-02T22:33:26.860Z,86
2023-09-02T23:03:27.442Z,87
2023-09-02T23:23:27.846Z,87
